Data for 05/26/2015

Time Sea-Level Adjusted Pressure Absolute Pressure Temperature Relative Humidity Dew Point   
(mb) (inHg) (mb) (inHg) (C) (F) (%) (C) (F)
00:05 1017 30.03 846 24.98 10.3 50.5 76 6.3 43.4
00:10 1016 30 846 24.98 10.2 50.4 76 6.2 43.2
00:15 1016 30 846 24.98 10.1 50.2 78 6.5 43.8
00:20 1016 30 845 24.95 10 50 78 6.4 43.6
00:25 1016 30 845 24.95 9.9 49.8 80 6.6 43.9
00:30 1016 30 845 24.95 9.8 49.6 81 6.6 44
00:35 1016 30 845 24.95 9.7 49.5 80 6.5 43.7
00:40 1016 30 845 24.95 9.8 49.6 80 6.5 43.7
00:45 1016 30 845 24.95 9.9 49.8 80 6.7 44
00:50 1016 30 845 24.95 10 50.1 80 6.7 44.1
00:55 1016 30 845 24.95 10.2 50.4 80 6.9 44.3
01:00 1016 30 845 24.95 10.2 50.4 79 6.8 44.3
01:05 1016 30 845 24.95 10.2 50.4 81 7.1 44.8
01:10 1016 30 846 24.98 10 50.1 84 7.4 45.3
01:15 1016 30 846 24.98 9.7 49.4 85 7.3 45.2
01:20 1016 30 846 24.98 9.5 49.1 84 7 44.6
01:25 1016 30 846 24.98 9.5 49.1 84 7 44.6
01:30 1016 30 846 24.98 9.5 49.2 80 6.3 43.4
01:35 1016 30 846 24.98 9.6 49.2 81 6.5 43.8
01:40 1016 30 846 24.98 9.6 49.2 82 6.7 44
01:45 1016 30 846 24.98 9.5 49.2 82 6.6 43.9
01:50 1016 30 846 24.98 9.5 49.1 82 6.5 43.8
01:55 1016 30 846 24.98 9.5 49.1 82 6.6 43.9
02:00 1017 30.03 846 24.98 9.3 48.8 82 6.4 43.5
02:05 1017 30.03 846 24.98 9.2 48.6 83 6.5 43.7
02:10 1017 30.03 846 24.98 9.3 48.7 84 6.6 43.9
02:15 1017 30.03 846 24.98 9.2 48.6 84 6.8 44.2
02:20 1017 30.03 846 24.98 9.2 48.5 85 6.9 44.3
02:25 1017 30.03 846 24.98 9.2 48.5 85 6.8 44.3
02:30 1017 30.03 846 24.98 9.2 48.5 85 6.8 44.2
02:35 1017 30.03 846 24.98 9.3 48.7 84 6.7 44
02:40 1017 30.03 846 24.98 9.3 48.7 84 6.7 44.1
02:45 1017 30.03 846 24.98 9.3 48.8 84 6.7 44.1
02:50 1017 30.03 846 24.98 9.3 48.7 85 6.9 44.4
02:55 1017 30.03 846 24.98 9.2 48.5 86 7 44.5
03:00 1017 30.03 846 24.98 9.1 48.4 86 7 44.5
03:05 1017 30.03 846 24.98 9.2 48.5 87 7.1 44.8
03:10 1017 30.03 846 24.98 9.2 48.5 88 7.3 45.1
03:15 1017 30.03 846 24.98 9.2 48.5 88 7.3 45.2
03:20 1017 30.03 846 24.98 9.2 48.6 88 7.4 45.4
03:25 1017 30.03 846 24.98 9.3 48.7 89 7.5 45.5
03:30 1017 30.03 846 24.98 9.3 48.7 89 7.5 45.5
03:35 1017 30.03 846 24.98 9.2 48.6 89 7.4 45.4
03:40 1017 30.03 846 24.98 9.3 48.7 89 7.6 45.6
03:45 1017 30.03 846 24.98 9.2 48.6 90 7.6 45.7
03:50 1017 30.03 846 24.98 9.2 48.5 89 7.5 45.5
03:55 1017 30.03 846 24.98 9.1 48.5 89 7.5 45.4
04:00 1017 30.03 846 24.98 9.1 48.4 89 7.4 45.3
04:05 1017 30.03 846 24.98 9 48.2 89 7.3 45.2
04:10 1017 30.03 846 24.98 8.9 48 90 7.4 45.3
04:15 1017 30.03 846 24.98 8.9 48 90 7.4 45.4
04:20 1017 30.03 846 24.98 9 48.1 91 7.5 45.5
04:25 1017 30.03 846 24.98 9 48.2 91 7.5 45.6
04:30 1017 30.03 846 24.98 9 48.2 91 7.6 45.7
04:35 1017 30.03 846 24.98 9.1 48.3 91 7.6 45.7
04:40 1017 30.03 846 24.98 9 48.3 91 7.6 45.7
04:45 1017 30.03 846 24.98 9.1 48.3 91 7.7 45.8
04:50 1017 30.03 846 24.98 9 48.3 91 7.6 45.8
04:55 1017 30.03 846 24.98 9 48.1 92 7.7 45.8
05:00 1017 30.03 846 24.98 9 48.2 92 7.7 45.9
05:05 1017 30.03 846 24.98 9 48.1 92 7.8 46
05:10 1017 30.03 846 24.98 9 48.1 92 7.8 46
05:15 1017 30.03 846 24.98 8.9 48 93 7.8 46
05:20 1017 30.03 846 24.98 8.9 48 93 7.8 46
05:25 1017 30.03 846 24.98 8.9 48.1 92 7.8 46
05:30 1017 30.03 846 24.98 8.9 48.1 92 7.7 45.9
05:35 1017 30.03 846 24.98 8.8 47.9 92 7.6 45.6
05:40 1017 30.03 847 25.01 8.8 47.8 92 7.5 45.5
05:45 1017 30.03 847 25.01 8.7 47.7 91 7.4 45.3
05:50 1017 30.03 847 25.01 8.7 47.6 92 7.5 45.4
05:55 1017 30.03 847 25.01 8.7 47.6 92 7.4 45.4
06:00 1018 30.06 847 25.01 8.7 47.7 91 7.3 45.2
06:05 1018 30.06 847 25.01 8.7 47.7 91 7.3 45.2
06:10 1018 30.06 847 25.01 8.7 47.7 90 7.2 44.9
06:15 1018 30.06 847 25.01 8.5 47.4 91 7.1 44.8
06:20 1018 30.06 847 25.01 8.7 47.6 91 7.3 45.1
06:25 1018 30.06 847 25.01 8.8 47.9 90 7.3 45.1
06:30 1018 30.06 847 25.01 8.9 48 89 7.3 45.1
06:35 1018 30.06 847 25.01 9 48.1 89 7.2 45
06:40 1018 30.06 847 25.01 9.1 48.3 89 7.4 45.4
06:45 1018 30.06 847 25.01 9.2 48.5 89 7.4 45.4
06:50 1018 30.06 847 25.01 9.2 48.5 89 7.4 45.3
06:55 1018 30.06 847 25.01 9.1 48.3 89 7.3 45.1
07:00 1018 30.06 847 25.01 9.2 48.6 89 7.5 45.5
07:05 1018 30.06 847 25.01 9.2 48.6 88 7.3 45.1
07:10 1018 30.06 847 25.01 9.2 48.5 87 7.2 45
07:15 1018 30.06 847 25.01 9.5 49.1 85 7.1 44.9
07:20 1018 30.06 847 25.01 9.5 49.1 87 7.4 45.2
07:25 1018 30.06 847 25.01 10.1 50.2 83 7.3 45.2
07:30 1018 30.06 847 25.01 10.3 50.5 83 7.5 45.4
07:35 1018 30.06 847 25.01 9.9 49.8 85 7.4 45.4
07:40 1018 30.06 847 25.01 10 50 83 7.3 45.2
07:45 1018 30.06 847 25.01 9.9 49.7 85 7.4 45.4
07:50 1018 30.06 847 25.01 9.8 49.6 83 7.1 44.8
07:55 1018 30.06 847 25.01 9.9 49.7 83 7.2 44.9
08:00 1018 30.06 847 25.01 10.2 50.4 82 7.3 45.1
08:05 1018 30.06 847 25.01 10.3 50.6 81 7.2 45
08:10 1018 30.06 847 25.01 10.1 50.2 84 7.5 45.5
08:15 1018 30.06 847 25.01 10.2 50.4 81 7.1 44.7
08:20 1018 30.06 847 25.01 10.2 50.4 79 6.7 44
08:25 1018 30.06 847 25.01 10.4 50.7 81 7.4 45.2
08:30 1018 30.06 847 25.01 11.5 52.6 75 7.1 44.8
08:35 1018 30.06 847 25.01 11.4 52.6 74 6.9 44.4
08:40 1018 30.06 847 25.01 11.2 52.1 72 6.4 43.6
08:45 1018 30.06 847 25.01 11.4 52.4 74 6.9 44.4
08:50 1018 30.06 847 25.01 11.8 53.3 71 6.8 44.2
08:55 1018 30.06 847 25.01 11.9 53.5 71 6.8 44.2
09:00 1018 30.06 847 25.01 11.8 53.3 70 6.6 43.8
09:05 1018 30.06 847 25.01 12.3 54.1 69 6.7 44.1
09:10 1018 30.06 847 25.01 12.1 53.9 66 6 42.8
09:15 1018 30.06 847 25.01 12.6 54.7 66 6.6 43.9
09:20 1018 30.06 847 25.01 12.7 54.8 66 6.6 43.9
09:25 1018 30.06 847 25.01 12.5 54.6 64 6 42.8
09:30 1018 30.06 847 25.01 12.9 55.2 63 6 42.7
09:35 1018 30.06 847 25.01 13.3 56 63 6.5 43.8
09:40 1018 30.06 847 25.01 13.6 56.4 58 5.6 42.1
09:45 1018 30.06 847 25.01 13.4 56.2 63 6.5 43.7
09:50 1018 30.06 847 25.01 14.1 57.4 59 6.4 43.5
09:55 1018 30.06 847 25.01 14.8 58.6 60 7.1 44.8
10:00 1018 30.06 847 25.01 14.9 58.8 56 6.2 43.1
10:05 1018 30.06 847 25.01 15.2 59.4 55 6.4 43.4
10:10 1018 30.06 847 25.01 14.5 58.2 57 6.2 43.2
10:15 1018 30.06 847 25.01 14.8 58.7 55 6 42.7
10:20 1018 30.06 847 25.01 15.2 59.4 55 6.3 43.3
10:25 1018 30.06 847 25.01 14.9 58.9 54 5.8 42.4
10:30 1018 30.06 847 25.01 15.8 60.5 49 5.2 41.4
10:35 1018 30.06 847 25.01 16.4 61.5 50 5.9 42.6
10:40 1018 30.06 847 25.01 16.9 62.3 47 5.6 42.1
10:45 1018 30.06 847 25.01 16.8 62.3 47 5.6 42.1
10:50 1018 30.06 847 25.01 16.8 62.3 47 5.6 42.1
10:55 1018 30.06 847 25.01 17 62.6 47 5.8 42.4
11:00 1018 30.06 847 25.01 17.5 63.4 46 5.8 42.4
11:05 1018 30.06 847 25.01 17 62.6 47 5.6 42.1
11:10 1018 30.06 847 25.01 17.3 63.1 46 5.6 42.2
11:15 1018 30.06 847 25.01 17.5 63.4 44 5.3 41.5
11:20 1018 30.06 847 25.01 17.5 63.5 45 5.5 41.9
11:25 1017 30.03 847 25.01 16.4 61.5 49 5.8 42.4
11:30 1017 30.03 847 25.01 16.4 61.5 44 4.2 39.5
11:35 1017 30.03 847 25.01 17.3 63.1 41 4 39.1
11:40 1017 30.03 847 25.01 17.4 63.3 41 4.1 39.4
11:45 1017 30.03 847 25.01 17.5 63.5 42 4.7 40.4
11:50 1017 30.03 847 25.01 18.1 64.5 42 5.2 41.4
11:55 1017 30.03 847 25.01 17.6 63.8 43 5.1 41.1
12:00 1017 30.03 847 25.01 17.5 63.4 43 4.8 40.6
12:05 1017 30.03 847 25.01 17.9 64.2 41 4.7 40.5
12:10 1017 30.03 847 25.01 18.4 65.1 41 4.9 40.8
12:15 1017 30.03 847 25.01 18.1 64.6 41 4.9 40.9
12:20 1017 30.03 847 25.01 17.3 63.2 41 4.2 39.6
12:25 1017 30.03 846 24.98 18.1 64.6 40 4.5 40.2
12:30 1017 30.03 846 24.98 18 64.4 41 4.7 40.5
12:35 1017 30.03 846 24.98 18.1 64.5 42 5.1 41.1
12:40 1017 30.03 846 24.98 18.4 65.2 38 4.1 39.4
12:45 1017 30.03 846 24.98 18 64.4 39 4 39.2
12:50 1017 30.03 846 24.98 17.7 63.9 45 5.8 42.5
12:55 1017 30.03 846 24.98 17.5 63.5 37 2.9 37.2
13:00 1017 30.03 846 24.98 18.6 65.6 37 3.8 38.8
13:05 1017 30.03 846 24.98 19.1 66.5 35 3.5 38.4
13:10 1017 30.03 846 24.98 18.5 65.3 40 4.8 40.6
13:15 1017 30.03 846 24.98 17.5 63.6 38 3.3 38
13:20 1017 30.03 846 24.98 17.9 64.1 37 3.1 37.6
13:25 1017 30.03 846 24.98 18.6 65.4 34 2.6 36.6
13:30 1017 30.03 846 24.98 19.5 67.2 30 1.8 35.3
13:35 1017 30.03 846 24.98 19.6 67.2 31 2.1 35.8
13:40 1017 30.03 846 24.98 19.3 66.7 31 2 35.5
13:45 1017 30.03 846 24.98 18.1 64.6 31 1.1 33.9
13:50 1017 30.03 846 24.98 19.1 66.3 29 0.9 33.7
13:55 1017 30.03 846 24.98 18.7 65.6 32 1.8 35.2
14:00 1017 30.03 846 24.98 18.9 66 30 1.1 34.1
14:05 1017 30.03 846 24.98 19.5 67.2 28 0.6 33.1
14:10 1017 30.03 846 24.98 19.7 67.4 32 2.6 36.8
14:15 1017 30.03 846 24.98 19.5 67.2 32 2.6 36.6
14:20 1017 30.03 846 24.98 19.6 67.3 32 2.6 36.7
14:25 1016 30 846 24.98 19.6 67.3 31 2.3 36.2
14:30 1017 30.03 846 24.98 19.6 67.3 30 1.7 35.1
14:35 1016 30 846 24.98 20 68 29 1.7 35
14:40 1016 30 846 24.98 20.1 68.1 29 1.5 34.7
14:45 1016 30 846 24.98 20.2 68.4 29 1.7 35.1
14:50 1016 30 846 24.98 20.3 68.5 29 1.8 35.2
14:55 1016 30 846 24.98 19.5 67.1 31 2.1 35.8
15:00 1016 30 846 24.98 19.1 66.3 29 0.7 33.2
15:05 1016 30 846 24.98 19.1 66.4 29 0.8 33.5
15:10 1016 30 846 24.98 19.9 67.8 28 1 33.8
15:15 1016 30 846 24.98 20.2 68.4 29 1.6 35
15:20 1016 30 846 24.98 20.5 68.8 27 0.8 33.4
15:25 1016 30 845 24.95 21 69.7 27 1.6 34.8
15:30 1016 30 845 24.95 20.7 69.3 26 0.9 33.7
15:35 1016 30 845 24.95 20.7 69.3 27 1 33.7
15:40 1016 30 845 24.95 20.7 69.2 28 1.6 34.9
15:45 1016 30 845 24.95 20.9 69.7 27 1.3 34.3
15:50 1016 30 845 24.95 21.1 70 26 1.3 34.3
15:55 1016 30 845 24.95 21.3 70.3 28 2.2 36
16:00 1016 30 845 24.95 20.7 69.3 28 1.6 34.8
16:05 1016 30 845 24.95 20.3 68.6 29 1.7 35
16:10 1016 30 845 24.95 19.8 67.7 29 1.4 34.5
16:15 1016 30 845 24.95 20 68 27 0.6 33.1
16:20 1016 30 845 24.95 20.5 68.9 26 0.3 32.5
16:25 1016 30 845 24.95 20.7 69.3 25 0.1 32.2
16:30 1016 30 845 24.95 20.6 69 25 0.3 32.5
16:35 1016 30 845 24.95 19.7 67.5 27 0.1 32.2
16:40 1016 30 845 24.95 19.9 67.8 26 0 32
16:45 1016 30 845 24.95 20.4 68.7 24 -0.6 30.8
16:50 1016 30 845 24.95 20.2 68.3 26 0.1 32.2
16:55 1016 30 845 24.95 19.5 67.2 28 0.8 33.5
17:00 1016 30 845 24.95 19.5 67.2 26 -0.2 31.7
17:05 1016 30 845 24.95 19.8 67.6 25 -0.5 31.1
17:10 1016 30 845 24.95 19.8 67.6 26 -0.2 31.7
17:15 1016 30 845 24.95 20.4 68.6 26 0.5 32.8
17:20 1016 30 845 24.95 20.5 69 25 0.2 32.3
17:25 1016 30 845 24.95 20.1 68.1 27 0.6 33.1
17:30 1016 30 845 24.95 19.8 67.7 27 0.3 32.6
17:35 1016 30 845 24.95 19.5 67.1 27 0.2 32.3
17:40 1016 30 845 24.95 18.7 65.6 27 -0.5 31.1
17:45 1016 30 845 24.95 18.8 65.9 26 -0.7 30.7
17:50 1016 30 845 24.95 19.6 67.3 26 -0.3 31.4
17:55 1015 29.97 845 24.95 20 67.9 26 -0.1 31.8
18:00 1016 30 845 24.95 19.5 67.1 24 -1.6 29.1
18:05 1016 30 845 24.95 18.9 66 25 -1.4 29.5
18:10 1016 30 845 24.95 18.9 66.1 26 -1.1 30.1
18:15 1015 29.97 845 24.95 18.8 65.8 30 0.8 33.5
18:20 1015 29.97 845 24.95 18.3 65 31 1 33.8
18:25 1016 30 845 24.95 18.1 64.6 31 0.7 33.3
18:30 1016 30 845 24.95 17.9 64.2 32 1 33.7
18:35 1015 29.97 845 24.95 18.1 64.6 32 1.2 34.2
18:40 1015 29.97 845 24.95 18.3 64.9 31 1 33.8
18:45 1015 29.97 845 24.95 18.3 65 30 0.7 33.3
18:50 1015 29.97 845 24.95 18.3 64.9 31 1.1 34
18:55 1015 29.97 845 24.95 18.1 64.6 31 0.8 33.5
19:00 1015 29.97 845 24.95 18 64.3 32 1 33.7
19:05 1015 29.97 845 24.95 17.8 64.1 31 0.8 33.4
19:10 1016 30 845 24.95 17.7 63.8 32 0.9 33.6
19:15 1016 30 845 24.95 17.6 63.7 32 0.8 33.5
19:20 1015 29.97 845 24.95 17.6 63.6 32 0.8 33.4
19:25 1015 29.97 845 24.95 17.4 63.3 34 1.5 34.8
19:30 1015 29.97 845 24.95 17.2 63 36 2.1 35.9
19:35 1015 29.97 845 24.95 17 62.6 38 2.8 37.1
19:40 1016 30 845 24.95 16.7 62.1 40 3.2 37.7
19:45 1016 30 845 24.95 16.4 61.6 45 4.6 40.3
19:50 1016 30 845 24.95 15.9 60.7 50 5.7 42.2
19:55 1016 30 845 24.95 15.5 59.9 52 5.7 42.3
20:00 1016 30 845 24.95 15.3 59.5 53 5.9 42.6
20:05 1016 30 845 24.95 15.1 59.1 54 6 42.7
20:10 1016 30 845 24.95 14.9 58.9 55 5.9 42.7
20:15 1016 30 845 24.95 14.8 58.6 55 6 42.8
20:20 1016 30 845 24.95 14.6 58.3 55 5.7 42.3
20:25 1016 30 845 24.95 14.5 58.1 56 5.8 42.4
20:30 1016 30 845 24.95 14.4 57.9 55 5.5 41.9
20:35 1016 30 846 24.98 14.4 57.9 55 5.6 42.1
20:40 1016 30 846 24.98 14.3 57.7 55 5.5 41.9
20:45 1016 30 846 24.98 14.3 57.7 55 5.4 41.7
20:50 1017 30.03 846 24.98 14.2 57.6 55 5.5 41.8
20:55 1017 30.03 846 24.98 14.2 57.5 55 5.3 41.5
21:00 1017 30.03 846 24.98 14.1 57.4 55 5.4 41.8
21:05 1017 30.03 846 24.98 14.1 57.3 56 5.5 41.8
21:10 1017 30.03 846 24.98 14 57.2 56 5.4 41.8
21:15 1017 30.03 846 24.98 13.9 57.1 56 5.4 41.7
21:20 1017 30.03 846 24.98 13.9 57 56 5.4 41.8
21:25 1017 30.03 846 24.98 13.8 56.9 57 5.6 42
21:30 1017 30.03 846 24.98 13.8 56.8 57 5.5 41.9
21:35 1017 30.03 846 24.98 13.7 56.7 57 5.5 41.9
21:40 1017 30.03 846 24.98 13.7 56.6 57 5.5 41.9
21:45 1017 30.03 846 24.98 13.6 56.4 59 5.7 42.2
21:50 1017 30.03 846 24.98 13.5 56.3 59 5.6 42.1
21:55 1017 30.03 846 24.98 13.4 56.2 59 5.6 42.1
22:00 1017 30.03 846 24.98 13.3 56 60 5.7 42.2
22:05 1017 30.03 846 24.98 13.2 55.8 59 5.4 41.8
22:10 1017 30.03 846 24.98 13.3 56 58 5.3 41.5
22:15 1017 30.03 846 24.98 13.3 56 58 5.2 41.4
22:20 1017 30.03 846 24.98 13.3 56 58 5.2 41.4
22:25 1017 30.03 846 24.98 13.2 55.8 58 5.3 41.6
22:30 1017 30.03 846 24.98 13.2 55.7 59 5.4 41.7
22:35 1017 30.03 846 24.98 13 55.5 59 5.4 41.7
22:40 1017 30.03 847 25.01 13 55.3 59 5.3 41.5
22:45 1017 30.03 847 25.01 13 55.3 59 5.3 41.5
22:50 1017 30.03 847 25.01 12.9 55.2 60 5.4 41.8
22:55 1017 30.03 847 25.01 12.8 55 61 5.4 41.8
23:00 1018 30.06 847 25.01 12.7 54.8 61 5.4 41.8
23:05 1018 30.06 847 25.01 12.6 54.7 62 5.6 42.1
23:10 1018 30.06 847 25.01 12.4 54.4 64 5.8 42.4
23:15 1018 30.06 847 25.01 12.3 54.1 64 5.8 42.4
23:20 1018 30.06 847 25.01 12.2 54 65 5.9 42.6
23:25 1018 30.06 847 25.01 12 53.7 66 6 42.9
23:30 1018 30.06 847 25.01 11.8 53.3 67 6 42.8
23:35 1018 30.06 847 25.01 11.9 53.4 64 5.3 41.5
23:40 1018 30.06 848 25.04 11.7 53 67 5.7 42.3
23:45 1018 30.06 848 25.04 11.3 52.4 69 6 42.8
23:50 1019 30.09 848 25.04 11.1 51.9 71 6.1 42.9
23:55 1019 30.09 848 25.04 10.9 51.6 74 6.5 43.6
24:00 1019 30.09 848 25.04 10.7 51.2 73 6 42.9